sensor_id;sensor_type;location;lat;lon;timestamp;P1;durP1;ratioP1;P2;durP2;ratioP2
75798;SDS011;70933;44.692;37.776;2023-12-29T00:00:24;2.38;;;1.45;;
75798;SDS011;70933;44.692;37.776;2023-12-29T00:01:29;2.25;;;1.55;;
75798;SDS011;70933;44.692;37.776;2023-12-29T00:02:31;5.13;;;2.40;;
75798;SDS011;70933;44.692;37.776;2023-12-29T00:03:33;3.10;;;1.80;;
75798;SDS011;70933;44.692;37.776;2023-12-29T00:04:36;3.80;;;1.45;;
75798;SDS011;70933;44.692;37.776;2023-12-29T00:05:38;3.00;;;2.13;;
75798;SDS011;70933;44.692;37.776;2023-12-29T00:06:40;2.53;;;1.58;;
75798;SDS011;70933;44.692;37.776;2023-12-29T00:07:42;2.42;;;2.22;;
75798;SDS011;70933;44.692;37.776;2023-12-29T00:08:43;1.95;;;1.27;;
75798;SDS011;70933;44.692;37.776;2023-12-29T00:09:45;1.58;;;0.63;;
75798;SDS011;70933;44.692;37.776;2023-12-29T00:10:47;1.77;;;1.50;;
75798;SDS011;70933;44.692;37.776;2023-12-29T00:11:51;1.88;;;1.63;;
75798;SDS011;70933;44.692;37.776;2023-12-29T00:12:55;1.90;;;1.60;;
75798;SDS011;70933;44.692;37.776;2023-12-29T00:13:56;2.78;;;1.70;;
75798;SDS011;70933;44.692;37.776;2023-12-29T00:14:58;1.90;;;0.35;;
75798;SDS011;70933;44.692;37.776;2023-12-29T00:16:00;2.35;;;1.38;;
75798;SDS011;70933;44.692;37.776;2023-12-29T00:17:02;3.35;;;1.48;;
75798;SDS011;70933;44.692;37.776;2023-12-29T00:18:04;1.52;;;0.70;;
75798;SDS011;70933;44.692;37.776;2023-12-29T00:19:05;2.22;;;0.63;;
75798;SDS011;70933;44.692;37.776;2023-12-29T00:20:08;2.13;;;1.40;;
75798;SDS011;70933;44.692;37.776;2023-12-29T00:21:10;2.00;;;1.80;;
75798;SDS011;70933;44.692;37.776;2023-12-29T00:22:11;2.28;;;1.85;;
75798;SDS011;70933;44.692;37.776;2023-12-29T00:23:13;2.80;;;1.25;;
75798;SDS011;70933;44.692;37.776;2023-12-29T00:24:15;1.48;;;0.77;;
75798;SDS011;70933;44.692;37.776;2023-12-29T00:25:17;1.35;;;1.05;;
75798;SDS011;70933;44.692;37.776;2023-12-29T00:26:19;3.05;;;1.27;;
75798;SDS011;70933;44.692;37.776;2023-12-29T00:27:27;2.00;;;1.80;;
75798;SDS011;70933;44.692;37.776;2023-12-29T00:28:29;1.77;;;1.10;;
75798;SDS011;70933;44.692;37.776;2023-12-29T00:29:31;2.65;;;1.52;;
75798;SDS011;70933;44.692;37.776;2023-12-29T00:30:38;2.15;;;1.88;;
75798;SDS011;70933;44.692;37.776;2023-12-29T00:31:40;1.88;;;1.63;;
75798;SDS011;70933;44.692;37.776;2023-12-29T00:32:42;2.33;;;0.20;;
75798;SDS011;70933;44.692;37.776;2023-12-29T00:33:44;1.35;;;0.30;;
75798;SDS011;70933;44.692;37.776;2023-12-29T00:34:46;2.15;;;1.10;;
75798;SDS011;70933;44.692;37.776;2023-12-29T00:35:47;1.90;;;1.25;;
75798;SDS011;70933;44.692;37.776;2023-12-29T00:36:49;2.08;;;0.35;;
75798;SDS011;70933;44.692;37.776;2023-12-29T00:37:50;1.95;;;1.25;;
75798;SDS011;70933;44.692;37.776;2023-12-29T00:38:52;3.80;;;1.20;;
75798;SDS011;70933;44.692;37.776;2023-12-29T00:39:53;2.85;;;1.38;;
75798;SDS011;70933;44.692;37.776;2023-12-29T00:40:55;2.75;;;1.60;;
75798;SDS011;70933;44.692;37.776;2023-12-29T00:41:56;1.95;;;1.70;;
75798;SDS011;70933;44.692;37.776;2023-12-29T00:42:59;1.88;;;0.35;;
75798;SDS011;70933;44.692;37.776;2023-12-29T00:44:01;2.15;;;1.48;;
75798;SDS011;70933;44.692;37.776;2023-12-29T00:45:03;1.83;;;1.23;;
75798;SDS011;70933;44.692;37.776;2023-12-29T00:46:05;1.40;;;0.10;;
75798;SDS011;70933;44.692;37.776;2023-12-29T00:47:07;2.58;;;0.95;;
75798;SDS011;70933;44.692;37.776;2023-12-29T00:48:08;1.52;;;1.40;;
75798;SDS011;70933;44.692;37.776;2023-12-29T00:49:10;2.08;;;1.13;;
75798;SDS011;70933;44.692;37.776;2023-12-29T00:50:12;2.00;;;1.05;;
75798;SDS011;70933;44.692;37.776;2023-12-29T00:51:13;2.28;;;1.15;;
75798;SDS011;70933;44.692;37.776;2023-12-29T00:52:15;2.28;;;1.60;;
75798;SDS011;70933;44.692;37.776;2023-12-29T00:53:16;2.22;;;1.50;;
75798;SDS011;70933;44.692;37.776;2023-12-29T00:54:18;1.42;;;1.02;;
75798;SDS011;70933;44.692;37.776;2023-12-29T00:55:20;1.38;;;0.30;;
75798;SDS011;70933;44.692;37.776;2023-12-29T00:56:21;2.22;;;1.23;;
75798;SDS011;70933;44.692;37.776;2023-12-29T00:57:23;1.90;;;0.30;;
75798;SDS011;70933;44.692;37.776;2023-12-29T00:58:24;2.28;;;1.15;;
75798;SDS011;70933;44.692;37.776;2023-12-29T00:59:26;1.70;;;1.40;;
75798;SDS011;70933;44.692;37.776;2023-12-29T01:00:27;3.42;;;0.93;;
75798;SDS011;70933;44.692;37.776;2023-12-29T01:01:32;2.65;;;1.52;;
75798;SDS011;70933;44.692;37.776;2023-12-29T01:02:35;1.73;;;1.17;;
75798;SDS011;70933;44.692;37.776;2023-12-29T01:03:36;1.55;;;0.20;;
75798;SDS011;70933;44.692;37.776;2023-12-29T01:04:38;1.52;;;0.90;;
75798;SDS011;70933;44.692;37.776;2023-12-29T01:05:42;1.60;;;1.38;;
75798;SDS011;70933;44.692;37.776;2023-12-29T01:06:44;3.80;;;1.45;;
75798;SDS011;70933;44.692;37.776;2023-12-29T01:07:46;2.00;;;1.10;;
75798;SDS011;70933;44.692;37.776;2023-12-29T01:08:49;0.77;;;0.10;;
75798;SDS011;70933;44.692;37.776;2023-12-29T01:09:50;1.67;;;1.23;;
75798;SDS011;70933;44.692;37.776;2023-12-29T01:10:52;1.83;;;1.13;;
75798;SDS011;70933;44.692;37.776;2023-12-29T01:11:54;2.00;;;1.67;;
75798;SDS011;70933;44.692;37.776;2023-12-29T01:12:55;2.13;;;1.27;;
75798;SDS011;70933;44.692;37.776;2023-12-29T01:13:56;1.58;;;1.02;;
75798;SDS011;70933;44.692;37.776;2023-12-29T01:14:58;2.25;;;1.48;;
75798;SDS011;70933;44.692;37.776;2023-12-29T01:16:01;1.65;;;1.23;;
75798;SDS011;70933;44.692;37.776;2023-12-29T01:17:03;2.47;;;1.00;;
75798;SDS011;70933;44.692;37.776;2023-12-29T01:18:06;2.17;;;1.10;;
75798;SDS011;70933;44.692;37.776;2023-12-29T01:19:08;1.73;;;1.10;;
75798;SDS011;70933;44.692;37.776;2023-12-29T01:20:10;1.60;;;1.20;;
75798;SDS011;70933;44.692;37.776;2023-12-29T01:21:12;2.97;;;1.20;;
75798;SDS011;70933;44.692;37.776;2023-12-29T01:22:13;2.03;;;1.52;;
75798;SDS011;70933;44.692;37.776;2023-12-29T01:23:15;2.33;;;0.52;;
75798;SDS011;70933;44.692;37.776;2023-12-29T01:24:18;1.88;;;1.13;;
75798;SDS011;70933;44.692;37.776;2023-12-29T01:25:20;1.88;;;1.42;;
75798;SDS011;70933;44.692;37.776;2023-12-29T01:26:21;2.05;;;1.25;;
75798;SDS011;70933;44.692;37.776;2023-12-29T01:27:23;2.53;;;1.58;;
75798;SDS011;70933;44.692;37.776;2023-12-29T01:28:25;1.42;;;1.15;;
75798;SDS011;70933;44.692;37.776;2023-12-29T01:29:26;1.60;;;1.17;;
75798;SDS011;70933;44.692;37.776;2023-12-29T01:30:28;2.60;;;1.38;;
75798;SDS011;70933;44.692;37.776;2023-12-29T01:31:30;1.98;;;0.85;;
75798;SDS011;70933;44.692;37.776;2023-12-29T01:32:32;2.20;;;1.35;;
75798;SDS011;70933;44.692;37.776;2023-12-29T01:33:33;1.95;;;0.90;;
75798;SDS011;70933;44.692;37.776;2023-12-29T01:34:35;2.53;;;1.17;;
75798;SDS011;70933;44.692;37.776;2023-12-29T01:35:38;1.75;;;1.10;;
75798;SDS011;70933;44.692;37.776;2023-12-29T01:36:42;1.27;;;1.17;;
75798;SDS011;70933;44.692;37.776;2023-12-29T01:37:43;3.35;;;0.90;;
75798;SDS011;70933;44.692;37.776;2023-12-29T01:38:45;3.13;;;1.05;;
75798;SDS011;70933;44.692;37.776;2023-12-29T01:39:46;1.73;;;0.85;;
75798;SDS011;70933;44.692;37.776;2023-12-29T01:40:48;1.52;;;1.02;;
75798;SDS011;70933;44.692;37.776;2023-12-29T01:41:49;1.55;;;0.15;;
75798;SDS011;70933;44.692;37.776;2023-12-29T01:42:51;1.70;;;1.25;;
75798;SDS011;70933;44.692;37.776;2023-12-29T01:45:23;1.40;;;0.80;;
75798;SDS011;70933;44.692;37.776;2023-12-29T01:46:31;2.83;;;0.80;;
75798;SDS011;70933;44.692;37.776;2023-12-29T01:47:35;2.08;;;1.42;;
75798;SDS011;70933;44.692;37.776;2023-12-29T01:48:37;2.17;;;1.95;;
75798;SDS011;70933;44.692;37.776;2023-12-29T01:49:39;2.20;;;0.75;;
75798;SDS011;70933;44.692;37.776;2023-12-29T01:50:41;2.33;;;0.45;;
75798;SDS011;70933;44.692;37.776;2023-12-29T01:51:46;2.03;;;1.05;;
75798;SDS011;70933;44.692;37.776;2023-12-29T01:52:50;2.22;;;1.58;;
75798;SDS011;70933;44.692;37.776;2023-12-29T01:53:54;2.40;;;1.17;;
75798;SDS011;70933;44.692;37.776;2023-12-29T01:54:58;1.55;;;1.05;;
75798;SDS011;70933;44.692;37.776;2023-12-29T01:56:00;1.85;;;1.38;;
75798;SDS011;70933;44.692;37.776;2023-12-29T01:57:02;1.60;;;1.23;;
75798;SDS011;70933;44.692;37.776;2023-12-29T01:58:04;1.60;;;1.08;;
75798;SDS011;70933;44.692;37.776;2023-12-29T01:59:05;2.03;;;1.30;;
75798;SDS011;70933;44.692;37.776;2023-12-29T02:00:07;1.55;;;1.27;;
75798;SDS011;70933;44.692;37.776;2023-12-29T02:01:13;1.23;;;0.75;;
75798;SDS011;70933;44.692;37.776;2023-12-29T02:02:16;1.63;;;1.00;;
75798;SDS011;70933;44.692;37.776;2023-12-29T02:03:19;2.05;;;1.55;;
75798;SDS011;70933;44.692;37.776;2023-12-29T02:04:22;2.58;;;1.63;;
75798;SDS011;70933;44.692;37.776;2023-12-29T02:06:27;2.15;;;1.35;;
75798;SDS011;70933;44.692;37.776;2023-12-29T02:07:31;2.55;;;1.08;;
75798;SDS011;70933;44.692;37.776;2023-12-29T02:08:33;1.88;;;1.02;;
75798;SDS011;70933;44.692;37.776;2023-12-29T02:09:35;2.70;;;2.00;;
75798;SDS011;70933;44.692;37.776;2023-12-29T02:10:39;2.17;;;1.55;;
75798;SDS011;70933;44.692;37.776;2023-12-29T02:11:41;1.77;;;1.35;;
75798;SDS011;70933;44.692;37.776;2023-12-29T02:12:43;1.92;;;1.15;;
75798;SDS011;70933;44.692;37.776;2023-12-29T02:13:47;1.52;;;1.35;;
75798;SDS011;70933;44.692;37.776;2023-12-29T02:14:49;1.38;;;0.60;;
75798;SDS011;70933;44.692;37.776;2023-12-29T02:15:51;2.05;;;0.95;;
75798;SDS011;70933;44.692;37.776;2023-12-29T02:18:17;1.63;;;1.23;;
75798;SDS011;70933;44.692;37.776;2023-12-29T02:20:23;1.80;;;0.80;;
75798;SDS011;70933;44.692;37.776;2023-12-29T02:21:25;2.38;;;1.27;;
75798;SDS011;70933;44.692;37.776;2023-12-29T02:22:27;1.55;;;0.90;;
75798;SDS011;70933;44.692;37.776;2023-12-29T02:23:28;1.58;;;1.45;;
75798;SDS011;70933;44.692;37.776;2023-12-29T02:24:30;1.20;;;0.20;;
75798;SDS011;70933;44.692;37.776;2023-12-29T02:25:32;1.95;;;0.20;;
75798;SDS011;70933;44.692;37.776;2023-12-29T02:26:34;1.40;;;0.90;;
75798;SDS011;70933;44.692;37.776;2023-12-29T02:28:50;2.28;;;1.08;;
75798;SDS011;70933;44.692;37.776;2023-12-29T02:31:20;3.30;;;0.32;;
75798;SDS011;70933;44.692;37.776;2023-12-29T02:32:26;2.95;;;1.05;;
75798;SDS011;70933;44.692;37.776;2023-12-29T02:33:30;1.27;;;1.02;;
75798;SDS011;70933;44.692;37.776;2023-12-29T02:34:34;2.17;;;1.48;;
75798;SDS011;70933;44.692;37.776;2023-12-29T02:36:43;2.22;;;1.35;;
75798;SDS011;70933;44.692;37.776;2023-12-29T02:37:46;1.90;;;0.95;;
75798;SDS011;70933;44.692;37.776;2023-12-29T02:38:48;2.33;;;1.23;;
75798;SDS011;70933;44.692;37.776;2023-12-29T02:39:50;1.70;;;1.05;;
75798;SDS011;70933;44.692;37.776;2023-12-29T02:40:53;1.70;;;1.60;;
75798;SDS011;70933;44.692;37.776;2023-12-29T02:41:56;1.33;;;1.05;;
75798;SDS011;70933;44.692;37.776;2023-12-29T02:42:57;1.77;;;1.00;;
75798;SDS011;70933;44.692;37.776;2023-12-29T02:43:59;1.48;;;1.02;;
75798;SDS011;70933;44.692;37.776;2023-12-29T02:45:00;1.77;;;0.20;;
75798;SDS011;70933;44.692;37.776;2023-12-29T02:46:02;2.20;;;1.13;;
75798;SDS011;70933;44.692;37.776;2023-12-29T02:47:04;2.05;;;0.98;;
75798;SDS011;70933;44.692;37.776;2023-12-29T02:48:06;1.90;;;1.33;;
75798;SDS011;70933;44.692;37.776;2023-12-29T02:49:08;1.38;;;0.95;;
75798;SDS011;70933;44.692;37.776;2023-12-29T02:50:13;1.63;;;1.10;;
75798;SDS011;70933;44.692;37.776;2023-12-29T02:51:15;1.02;;;0.88;;
75798;SDS011;70933;44.692;37.776;2023-12-29T02:52:17;2.55;;;1.42;;
75798;SDS011;70933;44.692;37.776;2023-12-29T02:53:18;1.75;;;0.35;;
75798;SDS011;70933;44.692;37.776;2023-12-29T02:54:20;1.70;;;0.93;;
75798;SDS011;70933;44.692;37.776;2023-12-29T02:55:21;1.92;;;1.83;;
75798;SDS011;70933;44.692;37.776;2023-12-29T02:56:23;2.92;;;1.33;;
75798;SDS011;70933;44.692;37.776;2023-12-29T02:57:24;2.72;;;1.08;;
75798;SDS011;70933;44.692;37.776;2023-12-29T02:58:26;1.73;;;0.30;;
75798;SDS011;70933;44.692;37.776;2023-12-29T02:59:28;1.95;;;1.15;;
75798;SDS011;70933;44.692;37.776;2023-12-29T03:00:30;2.35;;;0.95;;
75798;SDS011;70933;44.692;37.776;2023-12-29T03:01:31;2.30;;;1.25;;
75798;SDS011;70933;44.692;37.776;2023-12-29T03:02:33;1.52;;;1.35;;
75798;SDS011;70933;44.692;37.776;2023-12-29T03:03:38;2.38;;;0.90;;
75798;SDS011;70933;44.692;37.776;2023-12-29T03:04:41;2.28;;;1.38;;
75798;SDS011;70933;44.692;37.776;2023-12-29T03:05:42;2.53;;;1.17;;
75798;SDS011;70933;44.692;37.776;2023-12-29T03:06:44;1.45;;;1.10;;
75798;SDS011;70933;44.692;37.776;2023-12-29T03:07:45;1.73;;;1.27;;
75798;SDS011;70933;44.692;37.776;2023-12-29T03:08:47;1.95;;;1.13;;
75798;SDS011;70933;44.692;37.776;2023-12-29T03:09:49;2.28;;;0.98;;
75798;SDS011;70933;44.692;37.776;2023-12-29T03:10:50;1.85;;;1.27;;
75798;SDS011;70933;44.692;37.776;2023-12-29T03:11:52;3.47;;;1.02;;
75798;SDS011;70933;44.692;37.776;2023-12-29T03:12:53;2.30;;;1.40;;
75798;SDS011;70933;44.692;37.776;2023-12-29T03:13:56;1.63;;;0.95;;
75798;SDS011;70933;44.692;37.776;2023-12-29T03:14:57;2.95;;;1.58;;
75798;SDS011;70933;44.692;37.776;2023-12-29T03:16:01;2.13;;;0.77;;
75798;SDS011;70933;44.692;37.776;2023-12-29T03:17:03;2.63;;;1.40;;
75798;SDS011;70933;44.692;37.776;2023-12-29T03:18:04;1.63;;;0.93;;
75798;SDS011;70933;44.692;37.776;2023-12-29T03:19:06;2.13;;;1.45;;
75798;SDS011;70933;44.692;37.776;2023-12-29T03:20:08;1.80;;;1.05;;
75798;SDS011;70933;44.692;37.776;2023-12-29T03:21:11;2.28;;;1.35;;
75798;SDS011;70933;44.692;37.776;2023-12-29T03:22:12;2.15;;;1.23;;
75798;SDS011;70933;44.692;37.776;2023-12-29T03:23:14;1.92;;;0.22;;
75798;SDS011;70933;44.692;37.776;2023-12-29T03:24:16;1.80;;;1.23;;
75798;SDS011;70933;44.692;37.776;2023-12-29T03:25:17;1.33;;;1.10;;
75798;SDS011;70933;44.692;37.776;2023-12-29T03:26:19;2.67;;;1.17;;
75798;SDS011;70933;44.692;37.776;2023-12-29T03:27:21;1.58;;;1.33;;
75798;SDS011;70933;44.692;37.776;2023-12-29T03:28:22;1.30;;;1.15;;
75798;SDS011;70933;44.692;37.776;2023-12-29T03:29:24;1.80;;;0.90;;
75798;SDS011;70933;44.692;37.776;2023-12-29T03:30:28;1.33;;;0.13;;
75798;SDS011;70933;44.692;37.776;2023-12-29T03:31:30;1.58;;;0.80;;
75798;SDS011;70933;44.692;37.776;2023-12-29T03:32:31;1.42;;;0.13;;
75798;SDS011;70933;44.692;37.776;2023-12-29T03:33:34;1.73;;;1.08;;
75798;SDS011;70933;44.692;37.776;2023-12-29T03:34:36;2.42;;;1.40;;
75798;SDS011;70933;44.692;37.776;2023-12-29T03:35:38;1.20;;;0.75;;
75798;SDS011;70933;44.692;37.776;2023-12-29T03:36:39;2.28;;;1.02;;
75798;SDS011;70933;44.692;37.776;2023-12-29T03:37:41;2.10;;;1.08;;
75798;SDS011;70933;44.692;37.776;2023-12-29T03:38:45;1.55;;;0.60;;
75798;SDS011;70933;44.692;37.776;2023-12-29T03:39:46;1.70;;;1.23;;
75798;SDS011;70933;44.692;37.776;2023-12-29T03:40:48;2.17;;;0.10;;
75798;SDS011;70933;44.692;37.776;2023-12-29T03:41:50;2.97;;;0.90;;
75798;SDS011;70933;44.692;37.776;2023-12-29T03:42:51;3.03;;;0.88;;
75798;SDS011;70933;44.692;37.776;2023-12-29T03:43:53;1.30;;;0.93;;
75798;SDS011;70933;44.692;37.776;2023-12-29T03:44:57;1.35;;;0.30;;
75798;SDS011;70933;44.692;37.776;2023-12-29T03:45:59;2.00;;;1.90;;
75798;SDS011;70933;44.692;37.776;2023-12-29T03:47:00;2.20;;;1.27;;
75798;SDS011;70933;44.692;37.776;2023-12-29T03:48:03;2.13;;;0.10;;
75798;SDS011;70933;44.692;37.776;2023-12-29T03:49:05;1.50;;;1.20;;
75798;SDS011;70933;44.692;37.776;2023-12-29T03:50:07;2.22;;;0.30;;
75798;SDS011;70933;44.692;37.776;2023-12-29T03:51:08;2.08;;;0.20;;
75798;SDS011;70933;44.692;37.776;2023-12-29T03:52:10;1.75;;;1.08;;
75798;SDS011;70933;44.692;37.776;2023-12-29T03:53:12;1.80;;;1.48;;
75798;SDS011;70933;44.692;37.776;2023-12-29T03:55:19;0.82;;;0.10;;
75798;SDS011;70933;44.692;37.776;2023-12-29T03:56:20;2.50;;;1.33;;
75798;SDS011;70933;44.692;37.776;2023-12-29T03:57:22;2.08;;;1.13;;
75798;SDS011;70933;44.692;37.776;2023-12-29T03:58:24;2.00;;;1.35;;
75798;SDS011;70933;44.692;37.776;2023-12-29T03:59:25;2.10;;;1.08;;
75798;SDS011;70933;44.692;37.776;2023-12-29T04:00:27;1.52;;;1.00;;
75798;SDS011;70933;44.692;37.776;2023-12-29T04:01:29;2.90;;;1.30;;
75798;SDS011;70933;44.692;37.776;2023-12-29T04:02:34;2.97;;;0.85;;
75798;SDS011;70933;44.692;37.776;2023-12-29T04:03:35;2.25;;;0.63;;
75798;SDS011;70933;44.692;37.776;2023-12-29T04:04:38;2.08;;;0.95;;
75798;SDS011;70933;44.692;37.776;2023-12-29T04:05:39;2.10;;;1.58;;
75798;SDS011;70933;44.692;37.776;2023-12-29T04:06:41;2.90;;;0.13;;
75798;SDS011;70933;44.692;37.776;2023-12-29T04:07:42;2.55;;;1.55;;
75798;SDS011;70933;44.692;37.776;2023-12-29T04:08:44;1.35;;;1.02;;
75798;SDS011;70933;44.692;37.776;2023-12-29T04:09:46;2.75;;;0.95;;
75798;SDS011;70933;44.692;37.776;2023-12-29T04:10:48;1.77;;;1.30;;
75798;SDS011;70933;44.692;37.776;2023-12-29T04:11:49;4.18;;;0.95;;
75798;SDS011;70933;44.692;37.776;2023-12-29T04:12:51;1.80;;;1.08;;
75798;SDS011;70933;44.692;37.776;2023-12-29T04:13:53;2.10;;;1.17;;
75798;SDS011;70933;44.692;37.776;2023-12-29T04:14:54;2.25;;;0.50;;
75798;SDS011;70933;44.692;37.776;2023-12-29T04:15:56;2.72;;;0.32;;
75798;SDS011;70933;44.692;37.776;2023-12-29T04:16:58;3.20;;;1.10;;
75798;SDS011;70933;44.692;37.776;2023-12-29T04:18:01;1.63;;;1.33;;
75798;SDS011;70933;44.692;37.776;2023-12-29T04:19:03;2.17;;;1.42;;
75798;SDS011;70933;44.692;37.776;2023-12-29T04:20:04;4.05;;;0.45;;
75798;SDS011;70933;44.692;37.776;2023-12-29T04:21:07;3.47;;;0.70;;
75798;SDS011;70933;44.692;37.776;2023-12-29T04:22:10;2.95;;;1.08;;
75798;SDS011;70933;44.692;37.776;2023-12-29T04:23:11;1.85;;;0.68;;
75798;SDS011;70933;44.692;37.776;2023-12-29T04:24:13;2.33;;;0.77;;
75798;SDS011;70933;44.692;37.776;2023-12-29T04:25:15;3.17;;;0.50;;
75798;SDS011;70933;44.692;37.776;2023-12-29T04:26:16;1.67;;;0.45;;
75798;SDS011;70933;44.692;37.776;2023-12-29T04:27:19;4.07;;;1.20;;
75798;SDS011;70933;44.692;37.776;2023-12-29T04:28:20;2.90;;;1.20;;
75798;SDS011;70933;44.692;37.776;2023-12-29T04:29:22;1.95;;;0.73;;
75798;SDS011;70933;44.692;37.776;2023-12-29T04:30:24;1.88;;;1.13;;
75798;SDS011;70933;44.692;37.776;2023-12-29T04:31:26;4.72;;;2.55;;
75798;SDS011;70933;44.692;37.776;2023-12-29T04:32:27;4.55;;;0.65;;
75798;SDS011;70933;44.692;37.776;2023-12-29T04:33:29;3.70;;;1.63;;
75798;SDS011;70933;44.692;37.776;2023-12-29T04:34:30;4.15;;;0.32;;
75798;SDS011;70933;44.692;37.776;2023-12-29T04:35:32;1.65;;;0.20;;
75798;SDS011;70933;44.692;37.776;2023-12-29T04:36:33;2.53;;;1.25;;
75798;SDS011;70933;44.692;37.776;2023-12-29T04:37:35;2.45;;;1.33;;
75798;SDS011;70933;44.692;37.776;2023-12-29T04:38:36;2.15;;;1.67;;
75798;SDS011;70933;44.692;37.776;2023-12-29T04:39:40;2.40;;;1.25;;
75798;SDS011;70933;44.692;37.776;2023-12-29T04:40:42;2.80;;;0.82;;
75798;SDS011;70933;44.692;37.776;2023-12-29T04:41:43;2.85;;;1.45;;
75798;SDS011;70933;44.692;37.776;2023-12-29T04:42:45;3.38;;;1.27;;
75798;SDS011;70933;44.692;37.776;2023-12-29T04:43:46;2.70;;;1.48;;
75798;SDS011;70933;44.692;37.776;2023-12-29T04:44:48;5.50;;;0.30;;
75798;SDS011;70933;44.692;37.776;2023-12-29T04:45:50;2.42;;;1.38;;
75798;SDS011;70933;44.692;37.776;2023-12-29T04:46:51;2.33;;;1.17;;
75798;SDS011;70933;44.692;37.776;2023-12-29T04:47:53;3.42;;;1.55;;
75798;SDS011;70933;44.692;37.776;2023-12-29T04:48:54;3.22;;;1.30;;
75798;SDS011;70933;44.692;37.776;2023-12-29T04:49:56;3.40;;;0.90;;
75798;SDS011;70933;44.692;37.776;2023-12-29T04:50:58;4.70;;;1.58;;
75798;SDS011;70933;44.692;37.776;2023-12-29T04:51:59;3.25;;;1.23;;
75798;SDS011;70933;44.692;37.776;2023-12-29T04:53:01;2.40;;;1.20;;
75798;SDS011;70933;44.692;37.776;2023-12-29T04:54:03;2.05;;;0.25;;
75798;SDS011;70933;44.692;37.776;2023-12-29T04:55:04;2.65;;;1.42;;
75798;SDS011;70933;44.692;37.776;2023-12-29T04:56:06;2.72;;;1.48;;
75798;SDS011;70933;44.692;37.776;2023-12-29T04:57:08;4.82;;;1.45;;
75798;SDS011;70933;44.692;37.776;2023-12-29T04:58:10;3.30;;;1.35;;
75798;SDS011;70933;44.692;37.776;2023-12-29T04:59:11;3.63;;;1.67;;
75798;SDS011;70933;44.692;37.776;2023-12-29T05:00:13;6.45;;;1.38;;
75798;SDS011;70933;44.692;37.776;2023-12-29T05:01:15;5.80;;;1.80;;
75798;SDS011;70933;44.692;37.776;2023-12-29T05:02:17;6.32;;;1.95;;
75798;SDS011;70933;44.692;37.776;2023-12-29T05:04:22;3.33;;;1.77;;
75798;SDS011;70933;44.692;37.776;2023-12-29T05:05:23;1.88;;;1.33;;
75798;SDS011;70933;44.692;37.776;2023-12-29T05:06:25;4.47;;;1.95;;
75798;SDS011;70933;44.692;37.776;2023-12-29T05:07:26;3.00;;;1.77;;
75798;SDS011;70933;44.692;37.776;2023-12-29T05:08:28;4.45;;;2.05;;
75798;SDS011;70933;44.692;37.776;2023-12-29T05:09:29;4.18;;;1.42;;
75798;SDS011;70933;44.692;37.776;2023-12-29T05:10:31;3.38;;;0.47;;
75798;SDS011;70933;44.692;37.776;2023-12-29T05:11:35;3.30;;;1.60;;
75798;SDS011;70933;44.692;37.776;2023-12-29T05:12:37;3.97;;;0.45;;
75798;SDS011;70933;44.692;37.776;2023-12-29T05:13:38;3.15;;;1.15;;
75798;SDS011;70933;44.692;37.776;2023-12-29T05:14:40;4.80;;;0.40;;
75798;SDS011;70933;44.692;37.776;2023-12-29T05:15:42;3.90;;;2.03;;
75798;SDS011;70933;44.692;37.776;2023-12-29T05:16:44;3.35;;;1.98;;
75798;SDS011;70933;44.692;37.776;2023-12-29T05:17:45;3.80;;;1.40;;
75798;SDS011;70933;44.692;37.776;2023-12-29T05:18:47;3.63;;;2.08;;
75798;SDS011;70933;44.692;37.776;2023-12-29T05:19:49;3.72;;;2.05;;
75798;SDS011;70933;44.692;37.776;2023-12-29T05:20:50;3.55;;;1.75;;
75798;SDS011;70933;44.692;37.776;2023-12-29T05:21:52;3.15;;;1.98;;
75798;SDS011;70933;44.692;37.776;2023-12-29T05:22:54;4.47;;;1.70;;
75798;SDS011;70933;44.692;37.776;2023-12-29T05:23:56;2.67;;;1.67;;
75798;SDS011;70933;44.692;37.776;2023-12-29T05:24:58;2.53;;;0.40;;
75798;SDS011;70933;44.692;37.776;2023-12-29T05:26:01;1.77;;;1.42;;
75798;SDS011;70933;44.692;37.776;2023-12-29T05:27:03;4.72;;;1.30;;
75798;SDS011;70933;44.692;37.776;2023-12-29T05:28:05;3.33;;;1.77;;
75798;SDS011;70933;44.692;37.776;2023-12-29T05:29:06;4.28;;;1.50;;
75798;SDS011;70933;44.692;37.776;2023-12-29T05:30:08;2.70;;;1.95;;
75798;SDS011;70933;44.692;37.776;2023-12-29T05:31:10;3.45;;;2.10;;
75798;SDS011;70933;44.692;37.776;2023-12-29T05:32:12;3.78;;;2.10;;
75798;SDS011;70933;44.692;37.776;2023-12-29T05:33:13;3.70;;;1.65;;
75798;SDS011;70933;44.692;37.776;2023-12-29T05:34:15;4.20;;;2.05;;
75798;SDS011;70933;44.692;37.776;2023-12-29T05:35:17;2.88;;;0.30;;
75798;SDS011;70933;44.692;37.776;2023-12-29T05:36:18;4.72;;;3.15;;
75798;SDS011;70933;44.692;37.776;2023-12-29T05:37:20;4.03;;;1.80;;
75798;SDS011;70933;44.692;37.776;2023-12-29T05:38:22;4.35;;;1.58;;
75798;SDS011;70933;44.692;37.776;2023-12-29T05:39:23;5.43;;;2.08;;
75798;SDS011;70933;44.692;37.776;2023-12-29T05:40:25;3.05;;;1.23;;
75798;SDS011;70933;44.692;37.776;2023-12-29T05:41:26;3.50;;;1.70;;
75798;SDS011;70933;44.692;37.776;2023-12-29T05:42:28;3.42;;;1.90;;
75798;SDS011;70933;44.692;37.776;2023-12-29T05:43:30;3.58;;;1.45;;
75798;SDS011;70933;44.692;37.776;2023-12-29T05:44:35;4.07;;;2.20;;
75798;SDS011;70933;44.692;37.776;2023-12-29T05:45:38;4.20;;;1.83;;
75798;SDS011;70933;44.692;37.776;2023-12-29T05:46:39;3.10;;;2.00;;
75798;SDS011;70933;44.692;37.776;2023-12-29T05:47:41;3.15;;;2.22;;
75798;SDS011;70933;44.692;37.776;2023-12-29T05:48:43;3.40;;;2.53;;
75798;SDS011;70933;44.692;37.776;2023-12-29T05:49:44;2.35;;;1.95;;
75798;SDS011;70933;44.692;37.776;2023-12-29T05:50:46;2.72;;;1.88;;
75798;SDS011;70933;44.692;37.776;2023-12-29T05:51:48;3.08;;;1.85;;
75798;SDS011;70933;44.692;37.776;2023-12-29T05:52:49;4.28;;;2.08;;
75798;SDS011;70933;44.692;37.776;2023-12-29T05:53:52;5.07;;;2.80;;
75798;SDS011;70933;44.692;37.776;2023-12-29T05:54:54;6.93;;;2.88;;
75798;SDS011;70933;44.692;37.776;2023-12-29T05:55:55;4.40;;;2.60;;
75798;SDS011;70933;44.692;37.776;2023-12-29T05:56:58;3.42;;;2.83;;
75798;SDS011;70933;44.692;37.776;2023-12-29T05:57:59;3.78;;;2.60;;
75798;SDS011;70933;44.692;37.776;2023-12-29T05:59:01;3.83;;;2.75;;
75798;SDS011;70933;44.692;37.776;2023-12-29T06:00:03;4.82;;;2.70;;
75798;SDS011;70933;44.692;37.776;2023-12-29T06:01:13;3.78;;;2.72;;
75798;SDS011;70933;44.692;37.776;2023-12-29T06:02:15;4.78;;;2.80;;
75798;SDS011;70933;44.692;37.776;2023-12-29T06:03:17;4.78;;;2.67;;
75798;SDS011;70933;44.692;37.776;2023-12-29T06:04:18;5.28;;;3.10;;
75798;SDS011;70933;44.692;37.776;2023-12-29T06:05:20;5.07;;;2.20;;
75798;SDS011;70933;44.692;37.776;2023-12-29T06:06:22;5.60;;;2.92;;
75798;SDS011;70933;44.692;37.776;2023-12-29T06:07:23;4.20;;;1.67;;
75798;SDS011;70933;44.692;37.776;2023-12-29T06:08:25;5.68;;;3.15;;
75798;SDS011;70933;44.692;37.776;2023-12-29T06:09:27;4.10;;;2.97;;
75798;SDS011;70933;44.692;37.776;2023-12-29T06:10:28;4.88;;;3.38;;
75798;SDS011;70933;44.692;37.776;2023-12-29T06:11:30;7.03;;;3.65;;
75798;SDS011;70933;44.692;37.776;2023-12-29T06:12:32;6.70;;;3.67;;
75798;SDS011;70933;44.692;37.776;2023-12-29T06:13:33;5.85;;;3.20;;
75798;SDS011;70933;44.692;37.776;2023-12-29T06:14:36;4.15;;;3.10;;
75798;SDS011;70933;44.692;37.776;2023-12-29T06:15:38;4.72;;;2.83;;
75798;SDS011;70933;44.692;37.776;2023-12-29T06:16:39;4.57;;;3.22;;
75798;SDS011;70933;44.692;37.776;2023-12-29T06:17:41;6.53;;;3.42;;
75798;SDS011;70933;44.692;37.776;2023-12-29T06:18:44;5.70;;;2.78;;